sensor_id;sensor_type;location;lat;lon;timestamp;P1;durP1;ratioP1;P2;durP2;ratioP2
7683;SDS011;3884;48.616;12.872;2022-11-20T00:01:27;38.50;;;25.73;;
7683;SDS011;3884;48.616;12.872;2022-11-20T00:03:54;43.17;;;25.67;;
7683;SDS011;3884;48.616;12.872;2022-11-20T00:06:23;59.10;;;28.23;;
7683;SDS011;3884;48.616;12.872;2022-11-20T00:08:50;38.30;;;25.77;;
7683;SDS011;3884;48.616;12.872;2022-11-20T00:11:21;40.87;;;26.57;;
7683;SDS011;3884;48.616;12.872;2022-11-20T00:13:50;39.50;;;25.97;;
7683;SDS011;3884;48.616;12.872;2022-11-20T00:16:18;40.80;;;25.70;;
7683;SDS011;3884;48.616;12.872;2022-11-20T00:18:46;38.20;;;25.47;;
7683;SDS011;3884;48.616;12.872;2022-11-20T00:21:14;38.47;;;24.93;;
7683;SDS011;3884;48.616;12.872;2022-11-20T00:23:42;44.90;;;26.17;;
7683;SDS011;3884;48.616;12.872;2022-11-20T00:26:11;37.50;;;26.00;;
7683;SDS011;3884;48.616;12.872;2022-11-20T00:28:41;38.27;;;24.87;;
7683;SDS011;3884;48.616;12.872;2022-11-20T00:31:10;39.57;;;24.97;;
7683;SDS011;3884;48.616;12.872;2022-11-20T00:33:38;37.73;;;25.93;;
7683;SDS011;3884;48.616;12.872;2022-11-20T00:36:05;39.57;;;25.57;;
7683;SDS011;3884;48.616;12.872;2022-11-20T00:38:34;37.20;;;25.37;;
7683;SDS011;3884;48.616;12.872;2022-11-20T00:41:03;37.13;;;24.83;;
7683;SDS011;3884;48.616;12.872;2022-11-20T00:43:32;38.97;;;25.73;;
7683;SDS011;3884;48.616;12.872;2022-11-20T00:46:01;38.23;;;25.07;;
7683;SDS011;3884;48.616;12.872;2022-11-20T00:48:29;36.73;;;24.30;;
7683;SDS011;3884;48.616;12.872;2022-11-20T00:50:57;39.00;;;24.73;;
7683;SDS011;3884;48.616;12.872;2022-11-20T00:53:24;37.87;;;24.67;;
7683;SDS011;3884;48.616;12.872;2022-11-20T00:55:55;38.80;;;25.33;;
7683;SDS011;3884;48.616;12.872;2022-11-20T00:58:23;38.20;;;25.27;;
7683;SDS011;3884;48.616;12.872;2022-11-20T01:00:51;37.87;;;25.13;;
7683;SDS011;3884;48.616;12.872;2022-11-20T01:03:19;38.33;;;24.63;;
7683;SDS011;3884;48.616;12.872;2022-11-20T01:05:46;36.40;;;24.17;;
7683;SDS011;3884;48.616;12.872;2022-11-20T01:08:13;34.97;;;23.00;;
7683;SDS011;3884;48.616;12.872;2022-11-20T01:10:40;35.40;;;23.07;;
7683;SDS011;3884;48.616;12.872;2022-11-20T01:13:07;36.87;;;24.57;;
7683;SDS011;3884;48.616;12.872;2022-11-20T01:15:52;40.27;;;24.70;;
7683;SDS011;3884;48.616;12.872;2022-11-20T01:18:20;39.90;;;24.07;;
7683;SDS011;3884;48.616;12.872;2022-11-20T01:20:47;38.13;;;24.83;;
7683;SDS011;3884;48.616;12.872;2022-11-20T01:23:14;38.33;;;25.20;;
7683;SDS011;3884;48.616;12.872;2022-11-20T01:25:41;35.03;;;23.07;;
7683;SDS011;3884;48.616;12.872;2022-11-20T01:28:08;41.63;;;26.33;;
7683;SDS011;3884;48.616;12.872;2022-11-20T01:30:35;40.73;;;26.10;;
7683;SDS011;3884;48.616;12.872;2022-11-20T01:33:02;39.53;;;24.87;;
7683;SDS011;3884;48.616;12.872;2022-11-20T01:35:30;37.47;;;25.70;;
7683;SDS011;3884;48.616;12.872;2022-11-20T01:37:57;35.97;;;24.47;;
7683;SDS011;3884;48.616;12.872;2022-11-20T01:40:24;38.07;;;25.70;;
7683;SDS011;3884;48.616;12.872;2022-11-20T01:42:53;38.23;;;25.87;;
7683;SDS011;3884;48.616;12.872;2022-11-20T01:46:02;39.40;;;25.80;;
7683;SDS011;3884;48.616;12.872;2022-11-20T01:48:49;34.10;;;23.77;;
7683;SDS011;3884;48.616;12.872;2022-11-20T01:51:21;36.40;;;24.07;;
7683;SDS011;3884;48.616;12.872;2022-11-20T01:53:51;38.90;;;25.63;;
7683;SDS011;3884;48.616;12.872;2022-11-20T01:56:21;35.23;;;24.50;;
7683;SDS011;3884;48.616;12.872;2022-11-20T01:58:50;34.30;;;22.30;;
7683;SDS011;3884;48.616;12.872;2022-11-20T02:01:20;33.07;;;21.80;;
7683;SDS011;3884;48.616;12.872;2022-11-20T02:03:47;29.87;;;20.97;;
7683;SDS011;3884;48.616;12.872;2022-11-20T02:06:17;28.63;;;20.03;;
7683;SDS011;3884;48.616;12.872;2022-11-20T02:08:50;29.83;;;20.50;;
7683;SDS011;3884;48.616;12.872;2022-11-20T02:11:18;27.83;;;18.67;;
7683;SDS011;3884;48.616;12.872;2022-11-20T02:13:45;26.63;;;18.93;;
7683;SDS011;3884;48.616;12.872;2022-11-20T02:16:13;29.97;;;19.50;;
7683;SDS011;3884;48.616;12.872;2022-11-20T02:18:44;26.23;;;18.40;;
7683;SDS011;3884;48.616;12.872;2022-11-20T02:21:24;24.77;;;17.17;;
7683;SDS011;3884;48.616;12.872;2022-11-20T02:23:59;24.87;;;17.50;;
7683;SDS011;3884;48.616;12.872;2022-11-20T02:26:31;24.53;;;17.40;;
7683;SDS011;3884;48.616;12.872;2022-11-20T02:29:01;29.13;;;18.60;;
7683;SDS011;3884;48.616;12.872;2022-11-20T02:31:33;26.60;;;17.70;;
7683;SDS011;3884;48.616;12.872;2022-11-20T02:34:02;26.33;;;17.53;;
7683;SDS011;3884;48.616;12.872;2022-11-20T02:36:29;24.13;;;17.57;;
7683;SDS011;3884;48.616;12.872;2022-11-20T02:38:59;25.57;;;17.23;;
7683;SDS011;3884;48.616;12.872;2022-11-20T02:41:30;26.27;;;17.40;;
7683;SDS011;3884;48.616;12.872;2022-11-20T02:43:58;24.00;;;17.43;;
7683;SDS011;3884;48.616;12.872;2022-11-20T02:46:25;22.97;;;16.27;;
7683;SDS011;3884;48.616;12.872;2022-11-20T02:48:52;23.73;;;17.00;;
7683;SDS011;3884;48.616;12.872;2022-11-20T02:51:19;22.37;;;15.97;;
7683;SDS011;3884;48.616;12.872;2022-11-20T02:53:46;23.33;;;15.10;;
7683;SDS011;3884;48.616;12.872;2022-11-20T02:56:14;23.83;;;16.17;;
7683;SDS011;3884;48.616;12.872;2022-11-20T02:58:42;23.63;;;16.70;;
7683;SDS011;3884;48.616;12.872;2022-11-20T03:01:09;23.30;;;16.17;;
7683;SDS011;3884;48.616;12.872;2022-11-20T03:03:36;22.03;;;16.63;;
7683;SDS011;3884;48.616;12.872;2022-11-20T03:06:03;21.83;;;15.47;;
7683;SDS011;3884;48.616;12.872;2022-11-20T03:08:30;21.90;;;16.40;;
7683;SDS011;3884;48.616;12.872;2022-11-20T03:11:01;21.10;;;15.27;;
7683;SDS011;3884;48.616;12.872;2022-11-20T03:13:31;21.20;;;14.50;;
7683;SDS011;3884;48.616;12.872;2022-11-20T03:15:58;21.47;;;16.43;;
7683;SDS011;3884;48.616;12.872;2022-11-20T03:18:30;19.97;;;14.97;;
7683;SDS011;3884;48.616;12.872;2022-11-20T03:20:57;19.93;;;15.03;;
7683;SDS011;3884;48.616;12.872;2022-11-20T03:23:25;20.93;;;15.70;;
7683;SDS011;3884;48.616;12.872;2022-11-20T03:25:52;20.53;;;15.00;;
7683;SDS011;3884;48.616;12.872;2022-11-20T03:28:19;24.13;;;16.07;;
7683;SDS011;3884;48.616;12.872;2022-11-20T03:30:47;23.90;;;16.67;;
7683;SDS011;3884;48.616;12.872;2022-11-20T03:33:14;21.47;;;14.53;;
7683;SDS011;3884;48.616;12.872;2022-11-20T03:35:41;22.97;;;15.93;;
7683;SDS011;3884;48.616;12.872;2022-11-20T03:38:08;20.70;;;15.10;;
7683;SDS011;3884;48.616;12.872;2022-11-20T03:40:36;20.63;;;14.77;;
7683;SDS011;3884;48.616;12.872;2022-11-20T03:43:03;23.27;;;15.67;;
7683;SDS011;3884;48.616;12.872;2022-11-20T03:45:30;21.60;;;14.53;;
7683;SDS011;3884;48.616;12.872;2022-11-20T03:47:58;21.47;;;15.00;;
7683;SDS011;3884;48.616;12.872;2022-11-20T03:50:25;21.43;;;15.43;;
7683;SDS011;3884;48.616;12.872;2022-11-20T03:52:52;24.47;;;15.60;;
7683;SDS011;3884;48.616;12.872;2022-11-20T03:55:19;20.30;;;15.90;;
7683;SDS011;3884;48.616;12.872;2022-11-20T03:57:46;20.67;;;15.37;;
7683;SDS011;3884;48.616;12.872;2022-11-20T04:02:41;26.10;;;14.90;;
7683;SDS011;3884;48.616;12.872;2022-11-20T04:05:09;20.67;;;14.73;;
7683;SDS011;3884;48.616;12.872;2022-11-20T04:07:36;19.27;;;14.17;;
7683;SDS011;3884;48.616;12.872;2022-11-20T04:10:03;22.03;;;15.20;;
7683;SDS011;3884;48.616;12.872;2022-11-20T04:12:31;21.57;;;15.20;;
7683;SDS011;3884;48.616;12.872;2022-11-20T04:15:00;21.77;;;14.93;;
7683;SDS011;3884;48.616;12.872;2022-11-20T04:17:27;21.27;;;15.23;;
7683;SDS011;3884;48.616;12.872;2022-11-20T04:19:54;20.43;;;15.13;;
7683;SDS011;3884;48.616;12.872;2022-11-20T04:22:23;20.63;;;15.27;;
7683;SDS011;3884;48.616;12.872;2022-11-20T04:24:50;24.83;;;15.37;;
7683;SDS011;3884;48.616;12.872;2022-11-20T04:27:17;23.50;;;16.23;;
7683;SDS011;3884;48.616;12.872;2022-11-20T04:29:44;24.17;;;16.27;;
7683;SDS011;3884;48.616;12.872;2022-11-20T04:32:11;28.73;;;18.23;;
7683;SDS011;3884;48.616;12.872;2022-11-20T04:34:38;27.03;;;16.80;;
7683;SDS011;3884;48.616;12.872;2022-11-20T04:37:05;27.40;;;18.00;;
7683;SDS011;3884;48.616;12.872;2022-11-20T04:39:33;30.73;;;18.60;;
7683;SDS011;3884;48.616;12.872;2022-11-20T04:42:00;25.90;;;16.63;;
7683;SDS011;3884;48.616;12.872;2022-11-20T04:44:44;27.87;;;18.73;;
7683;SDS011;3884;48.616;12.872;2022-11-20T04:47:11;25.03;;;17.40;;
7683;SDS011;3884;48.616;12.872;2022-11-20T04:49:38;27.30;;;17.83;;
7683;SDS011;3884;48.616;12.872;2022-11-20T04:52:05;24.13;;;16.47;;
7683;SDS011;3884;48.616;12.872;2022-11-20T04:54:34;28.90;;;18.57;;
7683;SDS011;3884;48.616;12.872;2022-11-20T04:57:01;28.13;;;17.93;;
7683;SDS011;3884;48.616;12.872;2022-11-20T04:59:28;25.60;;;17.40;;
7683;SDS011;3884;48.616;12.872;2022-11-20T05:01:55;27.37;;;17.63;;
7683;SDS011;3884;48.616;12.872;2022-11-20T05:04:22;28.37;;;17.77;;
7683;SDS011;3884;48.616;12.872;2022-11-20T05:06:49;27.67;;;18.37;;
7683;SDS011;3884;48.616;12.872;2022-11-20T05:09:16;27.03;;;17.93;;
7683;SDS011;3884;48.616;12.872;2022-11-20T05:11:45;38.10;;;20.60;;
7683;SDS011;3884;48.616;12.872;2022-11-20T05:14:12;35.07;;;22.13;;
7683;SDS011;3884;48.616;12.872;2022-11-20T05:16:39;32.60;;;21.40;;
7683;SDS011;3884;48.616;12.872;2022-11-20T05:19:06;31.77;;;19.90;;
7683;SDS011;3884;48.616;12.872;2022-11-20T05:21:33;27.67;;;18.27;;
7683;SDS011;3884;48.616;12.872;2022-11-20T05:24:00;25.70;;;16.53;;
7683;SDS011;3884;48.616;12.872;2022-11-20T05:26:27;29.20;;;18.93;;
7683;SDS011;3884;48.616;12.872;2022-11-20T05:28:55;30.53;;;18.77;;
7683;SDS011;3884;48.616;12.872;2022-11-20T05:31:23;30.40;;;18.47;;
7683;SDS011;3884;48.616;12.872;2022-11-20T05:33:51;29.77;;;17.80;;
7683;SDS011;3884;48.616;12.872;2022-11-20T05:36:18;27.60;;;18.60;;
7683;SDS011;3884;48.616;12.872;2022-11-20T05:38:45;26.00;;;16.73;;
7683;SDS011;3884;48.616;12.872;2022-11-20T05:41:13;30.13;;;19.17;;
7683;SDS011;3884;48.616;12.872;2022-11-20T05:43:42;27.93;;;18.47;;
7683;SDS011;3884;48.616;12.872;2022-11-20T05:46:12;27.47;;;17.00;;
7683;SDS011;3884;48.616;12.872;2022-11-20T05:48:41;26.23;;;16.63;;
7683;SDS011;3884;48.616;12.872;2022-11-20T05:51:10;28.03;;;17.73;;
7683;SDS011;3884;48.616;12.872;2022-11-20T05:53:39;27.53;;;17.33;;
7683;SDS011;3884;48.616;12.872;2022-11-20T05:56:07;24.00;;;16.17;;
7683;SDS011;3884;48.616;12.872;2022-11-20T05:58:36;26.13;;;16.77;;
7683;SDS011;3884;48.616;12.872;2022-11-20T06:01:04;23.70;;;16.43;;
7683;SDS011;3884;48.616;12.872;2022-11-20T06:03:34;26.97;;;16.90;;
7683;SDS011;3884;48.616;12.872;2022-11-20T06:06:01;25.27;;;16.90;;
7683;SDS011;3884;48.616;12.872;2022-11-20T06:08:29;29.83;;;17.63;;
7683;SDS011;3884;48.616;12.872;2022-11-20T06:10:57;27.47;;;16.73;;
7683;SDS011;3884;48.616;12.872;2022-11-20T06:13:24;27.17;;;16.57;;
7683;SDS011;3884;48.616;12.872;2022-11-20T06:15:51;24.30;;;16.50;;
7683;SDS011;3884;48.616;12.872;2022-11-20T06:18:19;22.90;;;16.53;;
7683;SDS011;3884;48.616;12.872;2022-11-20T06:20:48;23.60;;;16.43;;
7683;SDS011;3884;48.616;12.872;2022-11-20T06:23:15;27.37;;;16.90;;
7683;SDS011;3884;48.616;12.872;2022-11-20T06:25:42;26.13;;;16.90;;
7683;SDS011;3884;48.616;12.872;2022-11-20T06:28:09;27.50;;;17.03;;
7683;SDS011;3884;48.616;12.872;2022-11-20T06:30:36;24.30;;;16.20;;
7683;SDS011;3884;48.616;12.872;2022-11-20T06:33:03;24.00;;;16.60;;
7683;SDS011;3884;48.616;12.872;2022-11-20T06:35:30;23.50;;;16.40;;
7683;SDS011;3884;48.616;12.872;2022-11-20T06:37:58;22.97;;;16.00;;
7683;SDS011;3884;48.616;12.872;2022-11-20T06:40:25;25.80;;;17.30;;
7683;SDS011;3884;48.616;12.872;2022-11-20T06:42:53;24.00;;;15.73;;
7683;SDS011;3884;48.616;12.872;2022-11-20T06:45:21;24.10;;;15.87;;
7683;SDS011;3884;48.616;12.872;2022-11-20T06:47:48;24.27;;;15.30;;
7683;SDS011;3884;48.616;12.872;2022-11-20T06:50:15;22.70;;;15.53;;
7683;SDS011;3884;48.616;12.872;2022-11-20T06:52:42;22.40;;;15.77;;
7683;SDS011;3884;48.616;12.872;2022-11-20T06:55:11;22.47;;;15.67;;
7683;SDS011;3884;48.616;12.872;2022-11-20T06:57:38;24.73;;;17.00;;
7683;SDS011;3884;48.616;12.872;2022-11-20T07:00:05;23.40;;;16.60;;
7683;SDS011;3884;48.616;12.872;2022-11-20T07:02:33;23.70;;;15.90;;
7683;SDS011;3884;48.616;12.872;2022-11-20T07:05:00;25.67;;;16.13;;
7683;SDS011;3884;48.616;12.872;2022-11-20T07:07:27;22.70;;;15.60;;
7683;SDS011;3884;48.616;12.872;2022-11-20T07:09:54;25.80;;;15.67;;
7683;SDS011;3884;48.616;12.872;2022-11-20T07:12:22;21.47;;;15.37;;
7683;SDS011;3884;48.616;12.872;2022-11-20T07:14:49;22.03;;;15.13;;
7683;SDS011;3884;48.616;12.872;2022-11-20T07:17:16;27.13;;;17.63;;
7683;SDS011;3884;48.616;12.872;2022-11-20T07:19:43;30.60;;;18.73;;
7683;SDS011;3884;48.616;12.872;2022-11-20T07:22:10;23.33;;;17.13;;
7683;SDS011;3884;48.616;12.872;2022-11-20T07:24:38;25.50;;;17.73;;
7683;SDS011;3884;48.616;12.872;2022-11-20T07:27:05;24.80;;;16.73;;
7683;SDS011;3884;48.616;12.872;2022-11-20T07:29:33;21.17;;;15.77;;
7683;SDS011;3884;48.616;12.872;2022-11-20T07:32:00;20.57;;;15.80;;
7683;SDS011;3884;48.616;12.872;2022-11-20T07:34:27;21.70;;;15.47;;
7683;SDS011;3884;48.616;12.872;2022-11-20T07:36:54;19.30;;;14.87;;
7683;SDS011;3884;48.616;12.872;2022-11-20T07:39:21;23.20;;;16.47;;
7683;SDS011;3884;48.616;12.872;2022-11-20T07:41:48;30.87;;;21.27;;
7683;SDS011;3884;48.616;12.872;2022-11-20T07:44:15;22.20;;;17.10;;
7683;SDS011;3884;48.616;12.872;2022-11-20T07:46:44;20.37;;;15.57;;
7683;SDS011;3884;48.616;12.872;2022-11-20T07:49:11;20.17;;;15.00;;
7683;SDS011;3884;48.616;12.872;2022-11-20T07:51:38;22.67;;;18.13;;
7683;SDS011;3884;48.616;12.872;2022-11-20T07:54:05;28.30;;;23.23;;
7683;SDS011;3884;48.616;12.872;2022-11-20T07:56:32;20.70;;;16.57;;
7683;SDS011;3884;48.616;12.872;2022-11-20T07:58:59;14.17;;;10.70;;
7683;SDS011;3884;48.616;12.872;2022-11-20T08:01:26;15.10;;;10.93;;
7683;SDS011;3884;48.616;12.872;2022-11-20T08:03:54;13.13;;;9.70;;
7683;SDS011;3884;48.616;12.872;2022-11-20T08:06:21;12.47;;;9.70;;
7683;SDS011;3884;48.616;12.872;2022-11-20T08:08:49;11.20;;;8.80;;
7683;SDS011;3884;48.616;12.872;2022-11-20T08:11:16;10.33;;;9.17;;
7683;SDS011;3884;48.616;12.872;2022-11-20T08:14:15;8.87;;;7.97;;
7683;SDS011;3884;48.616;12.872;2022-11-20T08:16:43;10.77;;;8.87;;
7683;SDS011;3884;48.616;12.872;2022-11-20T08:19:13;8.77;;;7.20;;
7683;SDS011;3884;48.616;12.872;2022-11-20T08:21:41;8.83;;;6.93;;
7683;SDS011;3884;48.616;12.872;2022-11-20T08:24:09;9.10;;;7.03;;
7683;SDS011;3884;48.616;12.872;2022-11-20T08:26:37;10.10;;;7.27;;
7683;SDS011;3884;48.616;12.872;2022-11-20T08:29:05;7.23;;;6.53;;
7683;SDS011;3884;48.616;12.872;2022-11-20T08:31:32;8.30;;;6.00;;
7683;SDS011;3884;48.616;12.872;2022-11-20T08:33:59;7.90;;;5.93;;
7683;SDS011;3884;48.616;12.872;2022-11-20T08:36:27;7.67;;;6.83;;
7683;SDS011;3884;48.616;12.872;2022-11-20T08:38:54;7.93;;;6.77;;
7683;SDS011;3884;48.616;12.872;2022-11-20T08:41:21;7.10;;;6.13;;
7683;SDS011;3884;48.616;12.872;2022-11-20T08:43:52;7.10;;;6.40;;
7683;SDS011;3884;48.616;12.872;2022-11-20T08:46:21;8.33;;;6.87;;
7683;SDS011;3884;48.616;12.872;2022-11-20T08:48:48;9.20;;;6.97;;
7683;SDS011;3884;48.616;12.872;2022-11-20T08:51:15;7.87;;;6.87;;
7683;SDS011;3884;48.616;12.872;2022-11-20T08:53:43;7.87;;;6.27;;
7683;SDS011;3884;48.616;12.872;2022-11-20T08:56:11;6.67;;;5.60;;
7683;SDS011;3884;48.616;12.872;2022-11-20T08:58:38;6.93;;;5.27;;
7683;SDS011;3884;48.616;12.872;2022-11-20T09:01:05;7.37;;;5.53;;
7683;SDS011;3884;48.616;12.872;2022-11-20T09:03:32;7.17;;;5.93;;
7683;SDS011;3884;48.616;12.872;2022-11-20T09:05:59;6.80;;;5.33;;
7683;SDS011;3884;48.616;12.872;2022-11-20T09:08:28;6.23;;;5.13;;
7683;SDS011;3884;48.616;12.872;2022-11-20T09:10:57;6.23;;;5.63;;
7683;SDS011;3884;48.616;12.872;2022-11-20T09:13:25;6.33;;;5.27;;
7683;SDS011;3884;48.616;12.872;2022-11-20T09:15:53;5.83;;;5.23;;
7683;SDS011;3884;48.616;12.872;2022-11-20T09:18:21;6.27;;;5.67;;
7683;SDS011;3884;48.616;12.872;2022-11-20T09:20:49;5.10;;;4.60;;
7683;SDS011;3884;48.616;12.872;2022-11-20T09:23:16;5.30;;;4.80;;
7683;SDS011;3884;48.616;12.872;2022-11-20T09:25:43;6.37;;;5.20;;
7683;SDS011;3884;48.616;12.872;2022-11-20T09:28:11;6.10;;;4.77;;
7683;SDS011;3884;48.616;12.872;2022-11-20T09:30:38;5.27;;;4.80;;
7683;SDS011;3884;48.616;12.872;2022-11-20T09:33:06;6.03;;;4.77;;
7683;SDS011;3884;48.616;12.872;2022-11-20T09:35:38;5.40;;;4.90;;
7683;SDS011;3884;48.616;12.872;2022-11-20T09:38:05;5.50;;;4.50;;
7683;SDS011;3884;48.616;12.872;2022-11-20T09:40:38;5.13;;;4.30;;
7683;SDS011;3884;48.616;12.872;2022-11-20T09:43:14;4.43;;;4.00;;
7683;SDS011;3884;48.616;12.872;2022-11-20T09:45:50;4.57;;;4.17;;
7683;SDS011;3884;48.616;12.872;2022-11-20T09:48:36;5.17;;;4.67;;
7683;SDS011;3884;48.616;12.872;2022-11-20T09:51:16;5.97;;;4.27;;
7683;SDS011;3884;48.616;12.872;2022-11-20T09:53:58;5.27;;;4.60;;
7683;SDS011;3884;48.616;12.872;2022-11-20T09:56:33;4.73;;;4.20;;
7683;SDS011;3884;48.616;12.872;2022-11-20T09:59:05;4.73;;;3.67;;
7683;SDS011;3884;48.616;12.872;2022-11-20T10:01:35;5.00;;;4.27;;
7683;SDS011;3884;48.616;12.872;2022-11-20T10:04:06;6.63;;;4.53;;
7683;SDS011;3884;48.616;12.872;2022-11-20T10:06:42;10.37;;;4.83;;
7683;SDS011;3884;48.616;12.872;2022-11-20T10:09:18;5.17;;;4.03;;
7683;SDS011;3884;48.616;12.872;2022-11-20T10:11:54;96.77;;;73.87;;
7683;SDS011;3884;48.616;12.872;2022-11-20T10:14:33;7.27;;;6.03;;
7683;SDS011;3884;48.616;12.872;2022-11-20T10:17:11;5.97;;;4.90;;
7683;SDS011;3884;48.616;12.872;2022-11-20T10:19:47;4.53;;;4.13;;
7683;SDS011;3884;48.616;12.872;2022-11-20T10:22:32;4.50;;;4.10;;
7683;SDS011;3884;48.616;12.872;2022-11-20T10:25:13;4.80;;;4.27;;
7683;SDS011;3884;48.616;12.872;2022-11-20T10:30:38;4.60;;;3.40;;
7683;SDS011;3884;48.616;12.872;2022-11-20T10:33:10;4.97;;;3.90;;
7683;SDS011;3884;48.616;12.872;2022-11-20T10:35:42;4.27;;;3.87;;
7683;SDS011;3884;48.616;12.872;2022-11-20T10:38:16;4.40;;;4.00;;
7683;SDS011;3884;48.616;12.872;2022-11-20T10:40:48;4.27;;;3.87;;
7683;SDS011;3884;48.616;12.872;2022-11-20T10:43:19;4.10;;;3.70;;
7683;SDS011;3884;48.616;12.872;2022-11-20T10:45:57;3.63;;;3.33;;
7683;SDS011;3884;48.616;12.872;2022-11-20T10:48:28;4.40;;;4.00;;
7683;SDS011;3884;48.616;12.872;2022-11-20T10:50:59;4.83;;;3.60;;
7683;SDS011;3884;48.616;12.872;2022-11-20T10:56:33;3.77;;;3.43;;
7683;SDS011;3884;48.616;12.872;2022-11-20T10:59:14;3.80;;;3.47;;
7683;SDS011;3884;48.616;12.872;2022-11-20T11:02:16;5.30;;;3.53;;
7683;SDS011;3884;48.616;12.872;2022-11-20T11:04:45;6.27;;;3.53;;
7683;SDS011;3884;48.616;12.872;2022-11-20T11:07:15;3.73;;;3.23;;
7683;SDS011;3884;48.616;12.872;2022-11-20T11:09:47;4.30;;;3.90;;
7683;SDS011;3884;48.616;12.872;2022-11-20T11:12:15;4.40;;;3.60;;
7683;SDS011;3884;48.616;12.872;2022-11-20T11:14:43;4.20;;;3.80;;
7683;SDS011;3884;48.616;12.872;2022-11-20T11:17:22;11.93;;;8.73;;
7683;SDS011;3884;48.616;12.872;2022-11-20T11:19:59;4.50;;;3.93;;
7683;SDS011;3884;48.616;12.872;2022-11-20T11:22:28;6.37;;;4.83;;
7683;SDS011;3884;48.616;12.872;2022-11-20T11:24:56;4.80;;;3.60;;
7683;SDS011;3884;48.616;12.872;2022-11-20T11:27:23;5.80;;;4.03;;
7683;SDS011;3884;48.616;12.872;2022-11-20T11:29:50;7.23;;;6.43;;
7683;SDS011;3884;48.616;12.872;2022-11-20T11:32:30;9.60;;;7.33;;
7683;SDS011;3884;48.616;12.872;2022-11-20T11:35:00;4.33;;;3.70;;
7683;SDS011;3884;48.616;12.872;2022-11-20T11:37:32;5.10;;;3.97;;
7683;SDS011;3884;48.616;12.872;2022-11-20T11:40:00;4.90;;;3.70;;
7683;SDS011;3884;48.616;12.872;2022-11-20T11:42:28;5.53;;;3.50;;
7683;SDS011;3884;48.616;12.872;2022-11-20T11:44:56;4.60;;;3.90;;
7683;SDS011;3884;48.616;12.872;2022-11-20T11:47:32;4.37;;;3.77;;
7683;SDS011;3884;48.616;12.872;2022-11-20T11:50:08;6.30;;;4.17;;
7683;SDS011;3884;48.616;12.872;2022-11-20T11:52:58;6.60;;;4.83;;
7683;SDS011;3884;48.616;12.872;2022-11-20T11:55:33;7.27;;;5.40;;
7683;SDS011;3884;48.616;12.872;2022-11-20T11:58:09;6.10;;;5.30;;
7683;SDS011;3884;48.616;12.872;2022-11-20T12:00:45;4.80;;;3.97;;
7683;SDS011;3884;48.616;12.872;2022-11-20T12:03:20;6.27;;;4.47;;
7683;SDS011;3884;48.616;12.872;2022-11-20T12:05:54;4.40;;;4.00;;
7683;SDS011;3884;48.616;12.872;2022-11-20T12:08:24;5.10;;;4.27;;
7683;SDS011;3884;48.616;12.872;2022-11-20T12:10:57;5.77;;;4.73;;
7683;SDS011;3884;48.616;12.872;2022-11-20T12:13:32;12.50;;;6.80;;
7683;SDS011;3884;48.616;12.872;2022-11-20T12:16:07;7.10;;;5.97;;
7683;SDS011;3884;48.616;12.872;2022-11-20T12:18:39;3.87;;;3.53;;
7683;SDS011;3884;48.616;12.872;2022-11-20T12:21:11;4.87;;;3.80;;
7683;SDS011;3884;48.616;12.872;2022-11-20T12:23:48;12.77;;;8.73;;
7683;SDS011;3884;48.616;12.872;2022-11-20T12:26:39;24.40;;;18.10;;
7683;SDS011;3884;48.616;12.872;2022-11-20T12:29:20;8.63;;;7.60;;
7683;SDS011;3884;48.616;12.872;2022-11-20T12:31:58;47.00;;;32.20;;
7683;SDS011;3884;48.616;12.872;2022-11-20T12:34:47;11.30;;;7.70;;
7683;SDS011;3884;48.616;12.872;2022-11-20T12:37:29;12.30;;;9.30;;
7683;SDS011;3884;48.616;12.872;2022-11-20T12:40:08;5.10;;;4.20;;
7683;SDS011;3884;48.616;12.872;2022-11-20T12:42:54;8.00;;;6.30;;
7683;SDS011;3884;48.616;12.872;2022-11-20T12:45:51;7.27;;;6.10;;
7683;SDS011;3884;48.616;12.872;2022-11-20T12:48:38;4.57;;;4.17;;
7683;SDS011;3884;48.616;12.872;2022-11-20T12:54:36;4.43;;;4.03;;
7683;SDS011;3884;48.616;12.872;2022-11-20T12:57:16;5.13;;;4.10;;
7683;SDS011;3884;48.616;12.872;2022-11-20T13:00:01;4.37;;;3.70;;
7683;SDS011;3884;48.616;12.872;2022-11-20T13:02:37;4.67;;;3.80;;
7683;SDS011;3884;48.616;12.872;2022-11-20T13:05:19;4.07;;;3.37;;
7683;SDS011;3884;48.616;12.872;2022-11-20T13:07:48;5.17;;;3.70;;
7683;SDS011;3884;48.616;12.872;2022-11-20T13:10:21;3.50;;;3.20;;
7683;SDS011;3884;48.616;12.872;2022-11-20T13:12:56;4.10;;;3.70;;
7683;SDS011;3884;48.616;12.872;2022-11-20T13:15:32;3.83;;;3.50;;
7683;SDS011;3884;48.616;12.872;2022-11-20T13:18:07;4.57;;;4.00;;
7683;SDS011;3884;48.616;12.872;2022-11-20T13:20:38;3.80;;;3.40;;
7683;SDS011;3884;48.616;12.872;2022-11-20T13:23:08;3.57;;;3.13;;
7683;SDS011;3884;48.616;12.872;2022-11-20T13:25:37;3.70;;;3.40;;
7683;SDS011;3884;48.616;12.872;2022-11-20T13:30:57;6.37;;;3.60;;
7683;SDS011;3884;48.616;12.872;2022-11-20T13:33:27;4.27;;;3.87;;
7683;SDS011;3884;48.616;12.872;2022-11-20T13:35:56;5.33;;;3.90;;
7683;SDS011;3884;48.616;12.872;2022-11-20T13:38:24;3.37;;;3.07;;
7683;SDS011;3884;48.616;12.872;2022-11-20T13:40:54;3.37;;;3.07;;
7683;SDS011;3884;48.616;12.872;2022-11-20T13:43:23;2.83;;;2.60;;
7683;SDS011;3884;48.616;12.872;2022-11-20T13:45:58;2.83;;;2.30;;
7683;SDS011;3884;48.616;12.872;2022-11-20T13:48:28;2.53;;;2.33;;
7683;SDS011;3884;48.616;12.872;2022-11-20T13:51:10;4.23;;;3.10;;
7683;SDS011;3884;48.616;12.872;2022-11-20T13:53:57;2.90;;;2.57;;
7683;SDS011;3884;48.616;12.872;2022-11-20T13:56:48;2.73;;;2.30;;
7683;SDS011;3884;48.616;12.872;2022-11-20T13:59:29;2.97;;;2.77;;
7683;SDS011;3884;48.616;12.872;2022-11-20T14:02:08;2.57;;;2.20;;
7683;SDS011;3884;48.616;12.872;2022-11-20T14:04:40;2.77;;;2.57;;
7683;SDS011;3884;48.616;12.872;2022-11-20T14:07:09;3.10;;;2.80;;
7683;SDS011;3884;48.616;12.872;2022-11-20T14:09:36;3.40;;;2.57;;
7683;SDS011;3884;48.616;12.872;2022-11-20T14:12:14;2.63;;;2.43;;
7683;SDS011;3884;48.616;12.872;2022-11-20T14:14:47;3.73;;;3.43;;
7683;SDS011;3884;48.616;12.872;2022-11-20T14:17:17;2.77;;;2.57;;
7683;SDS011;3884;48.616;12.872;2022-11-20T14:19:45;2.97;;;2.67;;
7683;SDS011;3884;48.616;12.872;2022-11-20T14:22:17;2.53;;;2.30;;
7683;SDS011;3884;48.616;12.872;2022-11-20T14:24:46;3.67;;;2.60;;
7683;SDS011;3884;48.616;12.872;2022-11-20T14:27:16;3.50;;;2.50;;
7683;SDS011;3884;48.616;12.872;2022-11-20T14:29:44;3.23;;;2.90;;
7683;SDS011;3884;48.616;12.872;2022-11-20T14:32:14;3.57;;;2.47;;
7683;SDS011;3884;48.616;12.872;2022-11-20T14:34:43;2.60;;;2.40;;
7683;SDS011;3884;48.616;12.872;2022-11-20T14:37:13;3.37;;;2.90;;
7683;SDS011;3884;48.616;12.872;2022-11-20T14:39:48;4.00;;;2.70;;
7683;SDS011;3884;48.616;12.872;2022-11-20T14:42:19;3.40;;;2.57;;
7683;SDS011;3884;48.616;12.872;2022-11-20T14:44:47;3.40;;;2.93;;
7683;SDS011;3884;48.616;12.872;2022-11-20T14:47:17;2.77;;;2.57;;
7683;SDS011;3884;48.616;12.872;2022-11-20T14:49:47;3.00;;;2.60;;
7683;SDS011;3884;48.616;12.872;2022-11-20T14:52:16;2.90;;;2.60;;
7683;SDS011;3884;48.616;12.872;2022-11-20T14:54:45;2.63;;;2.43;;
7683;SDS011;3884;48.616;12.872;2022-11-20T14:57:22;3.57;;;2.20;;
7683;SDS011;3884;48.616;12.872;2022-11-20T14:59:51;3.23;;;2.93;;
7683;SDS011;3884;48.616;12.872;2022-11-20T15:02:30;2.73;;;2.53;;
7683;SDS011;3884;48.616;12.872;2022-11-20T15:04:57;3.53;;;2.47;;
7683;SDS011;3884;48.616;12.872;2022-11-20T15:07:27;2.63;;;2.23;;
7683;SDS011;3884;48.616;12.872;2022-11-20T15:10:05;2.80;;;2.30;;
7683;SDS011;3884;48.616;12.872;2022-11-20T15:12:36;2.57;;;2.37;;
7683;SDS011;3884;48.616;12.872;2022-11-20T15:15:06;2.70;;;2.50;;
7683;SDS011;3884;48.616;12.872;2022-11-20T15:17:37;2.80;;;2.60;;
7683;SDS011;3884;48.616;12.872;2022-11-20T15:20:09;2.70;;;2.50;;